createdAt,value
2023-04-01T00:01:51.903Z,98455.50
2023-04-01T00:04:19.265Z,98460.66
2023-04-01T00:06:48.408Z,98452.47
2023-04-01T00:09:15.981Z,98452.50
2023-04-01T00:11:43.664Z,98453.16
2023-04-01T00:14:11.569Z,98439.31
2023-04-01T00:16:39.273Z,98443.06
2023-04-01T00:19:06.732Z,98448.97
2023-04-01T00:21:34.404Z,98440.63
2023-04-01T00:24:01.841Z,98454.69
2023-04-01T00:26:29.572Z,98449.50
2023-04-01T00:28:57.089Z,98454.41
2023-04-01T00:31:24.709Z,98457.34
2023-04-01T00:33:52.679Z,98453.28
2023-04-01T00:36:25.420Z,98457.44
2023-04-01T00:38:52.883Z,98445.47
2023-04-01T00:41:22.465Z,98452.03
2023-04-01T00:43:52.209Z,98463.44
2023-04-01T00:46:20.912Z,98464.13
2023-04-01T00:48:52.167Z,98456.47
2023-04-01T00:51:31.047Z,98452.53
2023-04-01T00:54:02.663Z,98455.56
2023-04-01T00:56:37.944Z,98457.19
2023-04-01T00:59:14.504Z,98452.88
2023-04-01T01:01:42.854Z,98457.22
2023-04-01T01:04:23.627Z,98451.06
2023-04-01T01:07:12.298Z,98453.72
2023-04-01T01:10:02.863Z,98446.41
2023-04-01T01:12:48.701Z,98443.88
2023-04-01T01:15:33.702Z,98442.06
2023-04-01T01:18:05.426Z,98460.09
2023-04-01T01:21:04.202Z,98451.75
2023-04-01T01:23:43.863Z,98461.91
2023-04-01T01:26:49.180Z,98467.63
2023-04-01T01:29:30.827Z,98467.09
2023-04-01T01:32:07.520Z,98460.91
2023-04-01T01:34:44.969Z,98465.94
2023-04-01T01:37:17.421Z,98456.72
2023-04-01T01:39:50.850Z,98463.91
2023-04-01T01:42:20.562Z,98457.59
2023-04-01T01:44:51.755Z,98456.59
2023-04-01T01:47:21.218Z,98459.06
2023-04-01T01:49:51.643Z,98460.19
2023-04-01T01:52:19.421Z,98463.44
2023-04-01T01:54:49.485Z,98464.22
2023-04-01T01:57:18.941Z,98467.75
2023-04-01T01:59:53.812Z,98457.06
2023-04-01T02:02:27.051Z,98459.72
2023-04-01T02:04:55.728Z,98462.91
2023-04-01T02:07:29.535Z,98462.38
2023-04-01T02:09:57.378Z,98462.56
2023-04-01T02:12:25.532Z,98470.28
2023-04-01T02:15:09.294Z,98470.97
2023-04-01T02:17:43.740Z,98472.13
2023-04-01T02:20:20.643Z,98477.66
2023-04-01T02:22:52.366Z,98474.63
2023-04-01T02:25:24.805Z,98473.44
2023-04-01T02:27:54.026Z,98473.28
2023-04-01T02:30:22.268Z,98479.47
2023-04-01T02:32:50.266Z,98474.63
2023-04-01T02:35:19.116Z,98478.72
2023-04-01T02:37:49.621Z,98478.94
2023-04-01T02:40:18.183Z,98484.53
2023-04-01T02:42:46.699Z,98485.25
2023-04-01T02:45:15.620Z,98481.56
2023-04-01T02:47:43.063Z,98475.59
2023-04-01T02:50:11.067Z,98484.78
2023-04-01T02:52:38.497Z,98474.41
2023-04-01T02:55:08.312Z,98483.59
2023-04-01T02:57:35.656Z,98481.75
2023-04-01T03:00:04.346Z,98481.91
2023-04-01T03:02:31.836Z,98495.28
2023-04-01T03:04:59.458Z,98500.03
2023-04-01T03:07:26.670Z,98501.25
2023-04-01T03:09:55.169Z,98499.66
2023-04-01T03:12:22.396Z,98503.50
2023-04-01T03:14:52.073Z,98500.00
2023-04-01T03:17:19.297Z,98509.69
2023-04-01T03:19:47.063Z,98501.00
2023-04-01T03:22:15.042Z,98511.84
2023-04-01T03:24:42.755Z,98512.03
2023-04-01T03:27:09.963Z,98508.19
2023-04-01T03:29:37.688Z,98508.69
2023-04-01T03:32:05.114Z,98509.03
2023-04-01T03:34:32.849Z,98500.97
2023-04-01T03:37:00.412Z,98510.88
2023-04-01T03:39:27.989Z,98515.22
2023-04-01T03:41:55.734Z,98519.72
2023-04-01T03:44:23.339Z,98514.19
2023-04-01T03:46:53.555Z,98511.03
2023-04-01T03:49:21.066Z,98517.72
2023-04-01T03:51:48.410Z,98512.38
2023-04-01T03:54:16.254Z,98515.06
2023-04-01T03:56:44.296Z,98514.34
2023-04-01T03:59:13.902Z,98520.16
2023-04-01T04:01:41.225Z,98522.69
2023-04-01T04:04:13.957Z,98533.03
2023-04-01T04:06:41.824Z,98522.69
2023-04-01T04:09:09.398Z,98525.22
2023-04-01T04:11:36.670Z,98521.03
2023-04-01T04:14:04.318Z,98519.06
2023-04-01T04:16:31.836Z,98528.03
2023-04-01T04:19:02.763Z,98535.44
2023-04-01T04:21:29.997Z,98532.09
2023-04-01T04:24:00.071Z,98536.69
2023-04-01T04:26:28.306Z,98544.75
2023-04-01T04:29:01.293Z,98546.19
2023-04-01T04:31:29.223Z,98535.50
2023-04-01T04:34:02.040Z,98527.31
2023-04-01T04:36:31.987Z,98539.38
2023-04-01T04:39:02.972Z,98535.91
2023-04-01T04:41:31.635Z,98541.63
2023-04-01T04:43:59.684Z,98533.34
2023-04-01T04:46:27.258Z,98539.72
2023-04-01T04:49:01.290Z,98545.06
2023-04-01T04:51:28.589Z,98545.41
2023-04-01T04:53:56.214Z,98543.78
2023-04-01T04:56:33.947Z,98540.06
2023-04-01T04:59:07.565Z,98535.44
2023-04-01T05:01:53.342Z,98542.59
2023-04-01T05:04:21.068Z,98536.53
2023-04-01T05:06:48.709Z,98548.59
2023-04-01T05:09:18.175Z,98550.50
2023-04-01T05:11:45.964Z,98553.78
2023-04-01T05:14:17.817Z,98547.34
2023-04-01T05:16:55.444Z,98565.97
2023-04-01T05:19:23.221Z,98554.34
2023-04-01T05:21:51.105Z,98568.56
2023-04-01T05:24:18.655Z,98561.97
2023-04-01T05:26:46.145Z,98570.47
2023-04-01T05:29:15.417Z,98577.81
2023-04-01T05:31:43.880Z,98578.38
2023-04-01T05:34:11.656Z,98573.28
2023-04-01T05:36:39.361Z,98568.34
2023-04-01T05:39:06.893Z,98581.25
2023-04-01T05:41:39.857Z,98585.34
2023-04-01T05:44:07.418Z,98580.00
2023-04-01T05:46:40.896Z,98573.75
2023-04-01T05:49:23.244Z,98589.31
2023-04-01T05:51:52.308Z,98580.00
2023-04-01T05:54:20.225Z,98589.94
2023-04-01T05:56:48.835Z,98594.69
2023-04-01T05:59:16.715Z,98605.75
2023-04-01T06:01:44.080Z,98596.53
2023-04-01T06:04:17.542Z,98606.28
2023-04-01T06:06:46.437Z,98607.53
2023-04-01T06:09:20.585Z,98619.31
2023-04-01T06:12:16.203Z,98623.41
2023-04-01T06:15:12.982Z,98627.31
2023-04-01T06:18:07.888Z,98623.19
2023-04-01T06:20:48.900Z,98615.66
2023-04-01T06:23:28.309Z,98643.44
2023-04-01T06:26:04.403Z,98631.81
2023-04-01T06:28:45.868Z,98645.16
2023-04-01T06:31:27.857Z,98643.34
2023-04-01T06:34:07.738Z,98641.94
2023-04-01T06:37:11.193Z,98641.50
2023-04-01T06:40:10.123Z,98650.81
2023-04-01T06:43:20.002Z,98655.81
2023-04-01T06:46:20.747Z,98655.69
2023-04-01T06:49:27.295Z,98659.34
2023-04-01T06:52:41.569Z,98662.31
2023-04-01T06:55:34.455Z,98670.31
2023-04-01T06:58:26.561Z,98666.97
2023-04-01T07:00:59.363Z,98678.22
2023-04-01T07:03:30.395Z,98683.19
2023-04-01T07:06:04.120Z,98665.91
2023-04-01T07:08:37.418Z,98676.88
2023-04-01T07:11:07.987Z,98682.63
2023-04-01T07:14:03.530Z,98688.59
2023-04-01T07:16:37.090Z,98692.72
2023-04-01T07:19:13.637Z,98686.38
2023-04-01T07:22:00.634Z,98696.91
2023-04-01T07:24:46.521Z,98696.44
2023-04-01T07:27:15.741Z,98699.09
2023-04-01T07:29:44.838Z,98696.13
2023-04-01T07:32:35.964Z,98709.25
2023-04-01T07:35:24.904Z,98717.88
2023-04-01T07:38:11.332Z,98713.22
2023-04-01T07:41:10.937Z,98704.22
2023-04-01T07:43:55.065Z,98717.63
2023-04-01T07:46:36.285Z,98716.94
2023-04-01T07:49:16.632Z,98716.03
2023-04-01T07:51:52.462Z,98720.59
2023-04-01T07:54:46.235Z,98722.50
2023-04-01T07:57:18.226Z,98721.25
2023-04-01T08:00:08.877Z,98730.56
2023-04-01T08:02:56.336Z,98727.81
2023-04-01T08:05:29.270Z,98737.31
2023-04-01T08:08:07.227Z,98738.19
2023-04-01T08:11:19.980Z,98739.84
2023-04-01T08:14:44.564Z,98743.66
2023-04-01T08:17:41.717Z,98749.16
2023-04-01T08:20:16.538Z,98755.63
2023-04-01T08:22:57.821Z,98747.41
2023-04-01T08:25:33.951Z,98764.88
2023-04-01T08:28:18.287Z,98761.41
2023-04-01T08:30:51.574Z,98776.81
2023-04-01T08:33:30.624Z,98755.94
2023-04-01T08:36:22.122Z,98771.78
2023-04-01T08:39:11.866Z,98767.38
2023-04-01T08:41:58.964Z,98774.31
2023-04-01T08:45:15.595Z,98760.50
2023-04-01T08:48:02.427Z,98787.31
2023-04-01T08:50:59.405Z,98785.41
2023-04-01T08:54:01.194Z,98784.94
2023-04-01T08:56:30.583Z,98789.84
2023-04-01T08:59:13.218Z,98798.22
2023-04-01T09:01:59.797Z,98803.22
2023-04-01T09:05:17.511Z,98800.66
2023-04-01T09:08:04.829Z,98809.34
2023-04-01T09:10:38.147Z,98813.81
2023-04-01T09:13:48.746Z,98799.88
2023-04-01T09:16:31.303Z,98808.94
2023-04-01T09:19:18.152Z,98808.63
2023-04-01T09:22:03.957Z,98814.03
2023-04-01T09:25:05.516Z,98813.41
2023-04-01T09:28:05.069Z,98816.44
2023-04-01T09:30:54.632Z,98821.19
2023-04-01T09:33:44.916Z,98843.53
2023-04-01T09:36:24.670Z,98829.88
2023-04-01T09:39:03.827Z,98837.50
2023-04-01T09:41:42.627Z,98844.72
2023-04-01T09:44:30.323Z,98845.81
2023-04-01T09:47:30.015Z,98837.88
2023-04-01T09:50:07.086Z,98849.31
2023-04-01T09:52:50.323Z,98845.53
2023-04-01T09:56:01.779Z,98850.28
2023-04-01T09:58:59.388Z,98853.34
2023-04-01T10:02:07.960Z,98864.34
2023-04-01T10:05:05.796Z,98871.13
2023-04-01T10:07:45.693Z,98868.09
2023-04-01T10:10:38.066Z,98869.47
2023-04-01T10:13:05.647Z,98875.78
2023-04-01T10:15:57.483Z,98882.91
2023-04-01T10:18:52.535Z,98886.56
2023-04-01T10:21:34.836Z,98888.72
2023-04-01T10:24:20.538Z,98888.34
2023-04-01T10:27:01.087Z,98884.88
2023-04-01T10:30:10.415Z,98892.75
2023-04-01T10:32:57.000Z,98895.41
2023-04-01T10:35:48.300Z,98896.03
2023-04-01T10:39:06.839Z,98900.44
2023-04-01T10:42:05.164Z,98898.69
2023-04-01T10:45:05.389Z,98904.09
2023-04-01T10:48:18.407Z,98899.09
2023-04-01T10:51:11.936Z,98902.03
2023-04-01T10:53:50.306Z,98922.06
2023-04-01T10:56:39.356Z,98923.84
2023-04-01T10:59:46.606Z,98917.56
2023-04-01T11:03:17.502Z,98930.50
2023-04-01T11:06:12.678Z,98936.75
2023-04-01T11:09:02.223Z,98932.41
2023-04-01T11:12:05.347Z,98924.94
2023-04-01T11:14:52.058Z,98943.81
2023-04-01T11:17:23.551Z,98943.50
2023-04-01T11:20:24.995Z,98952.16
2023-04-01T11:23:10.546Z,98946.72
2023-04-01T11:25:52.336Z,98965.44
2023-04-01T11:28:56.706Z,98948.63
2023-04-01T11:31:43.928Z,98969.78
2023-04-01T11:34:34.799Z,98961.50
2023-04-01T11:37:30.090Z,98968.78
2023-04-01T11:40:30.176Z,98973.63
2023-04-01T11:43:38.027Z,98973.22
2023-04-01T11:46:55.612Z,98974.38
2023-04-01T11:49:50.816Z,98973.06
2023-04-01T11:52:46.305Z,98976.06
2023-04-01T11:55:31.679Z,98974.59
2023-04-01T11:58:06.240Z,98985.88
2023-04-01T12:00:59.024Z,98980.47
2023-04-01T12:03:44.939Z,98979.38
2023-04-01T12:06:23.369Z,98974.38
2023-04-01T12:09:16.927Z,98971.56
2023-04-01T12:11:47.890Z,98985.31
2023-04-01T12:14:27.101Z,98975.78
2023-04-01T12:17:12.464Z,98989.53
2023-04-01T12:19:48.836Z,98997.63
2023-04-01T12:23:01.526Z,98995.38
2023-04-01T12:25:29.018Z,99010.50
2023-04-01T12:28:21.378Z,98993.19
2023-04-01T12:30:51.258Z,99012.38
2023-04-01T12:33:24.496Z,99019.56
2023-04-01T12:36:13.922Z,98994.31
2023-04-01T12:39:02.899Z,99004.09
2023-04-01T12:41:50.900Z,99026.00
2023-04-01T12:44:50.651Z,99028.13
2023-04-01T12:47:46.032Z,99026.00
2023-04-01T12:50:28.690Z,99021.09
2023-04-01T12:53:20.417Z,99032.19
2023-04-01T12:55:53.781Z,99040.03
2023-04-01T12:58:47.303Z,99032.22
2023-04-01T13:01:30.141Z,99042.56
2023-04-01T13:04:32.152Z,99046.22
2023-04-01T13:06:59.749Z,99061.94
2023-04-01T13:09:50.599Z,99068.63
2023-04-01T13:12:28.945Z,99075.25
2023-04-01T13:15:07.312Z,99073.69
2023-04-01T13:18:22.887Z,99075.25
2023-04-01T13:21:09.460Z,99084.50
2023-04-01T13:24:03.810Z,99097.81
2023-04-01T13:26:41.143Z,99096.06
2023-04-01T13:29:23.552Z,99092.19
2023-04-01T13:32:08.908Z,99095.56
2023-04-01T13:35:11.648Z,99091.19
2023-04-01T13:37:51.337Z,99087.16
2023-04-01T13:40:36.467Z,99091.31
2023-04-01T13:43:13.071Z,99087.75
2023-04-01T13:46:09.636Z,99098.59
2023-04-01T13:48:52.094Z,99114.38
2023-04-01T13:52:04.544Z,99101.44
2023-04-01T13:54:50.410Z,99113.53
2023-04-01T13:57:38.613Z,99132.31
2023-04-01T14:00:30.001Z,99125.59
2023-04-01T14:03:31.425Z,99117.94
2023-04-01T14:06:40.243Z,99127.56
2023-04-01T14:09:45.113Z,99128.34
2023-04-01T14:12:34.273Z,99132.13
2023-04-01T14:15:26.417Z,99130.81
2023-04-01T14:18:18.714Z,99130.41
2023-04-01T14:20:58.403Z,99121.50
2023-04-01T14:23:53.234Z,99147.25
2023-04-01T14:26:42.372Z,99144.06
2023-04-01T14:29:18.702Z,99159.66
2023-04-01T14:32:01.239Z,99149.63
2023-04-01T14:34:59.324Z,99156.25
2023-04-01T14:37:36.350Z,99164.25
2023-04-01T14:40:29.853Z,99149.69
2023-04-01T14:43:07.388Z,99161.94
2023-04-01T14:45:53.472Z,99165.38
2023-04-01T14:48:35.816Z,99156.81
2023-04-01T14:51:17.434Z,99171.19
2023-04-01T14:53:59.969Z,99178.97
2023-04-01T14:57:17.670Z,99173.34
2023-04-01T15:00:16.177Z,99180.28
2023-04-01T15:03:03.307Z,99181.81
2023-04-01T15:05:44.971Z,99189.97
2023-04-01T15:08:19.189Z,99183.75
2023-04-01T15:11:00.360Z,99193.78
2023-04-01T15:13:31.121Z,99189.47
2023-04-01T15:16:20.526Z,99204.84
2023-04-01T15:19:49.801Z,99202.91
2023-04-01T15:22:52.066Z,99211.50
2023-04-01T15:25:31.582Z,99218.91
2023-04-01T15:28:47.054Z,99217.00
2023-04-01T15:31:18.078Z,99232.84
2023-04-01T15:34:17.488Z,99222.94
2023-04-01T15:37:07.657Z,99235.22
2023-04-01T15:39:47.795Z,99245.44
2023-04-01T15:42:49.419Z,99216.13
2023-04-01T15:45:54.601Z,99247.81
2023-04-01T15:48:43.302Z,99248.56
2023-04-01T15:51:49.462Z,99263.78
2023-04-01T15:54:33.316Z,99270.66
2023-04-01T15:57:16.032Z,99267.03
2023-04-01T16:00:05.661Z,99263.91
2023-04-01T16:03:17.070Z,99264.41
2023-04-01T16:05:56.611Z,99283.38
2023-04-01T16:08:30.215Z,99282.53
2023-04-01T16:11:16.028Z,99283.97
2023-04-01T16:14:11.350Z,99281.84
2023-04-01T16:16:50.607Z,99290.41
2023-04-01T16:19:28.510Z,99291.03
2023-04-01T16:22:33.419Z,99301.47
2023-04-01T16:25:21.499Z,99316.13
2023-04-01T16:28:14.061Z,99311.19
2023-04-01T16:30:59.542Z,99318.81
2023-04-01T16:33:42.217Z,99318.28
2023-04-01T16:36:28.259Z,99321.47
2023-04-01T16:39:16.386Z,99318.53
2023-04-01T16:42:08.267Z,99314.13
2023-04-01T16:44:55.216Z,99324.91
2023-04-01T16:47:33.850Z,99333.91
2023-04-01T16:50:13.457Z,99338.63
2023-04-01T16:53:14.654Z,99345.28
2023-04-01T16:55:49.210Z,99349.38
2023-04-01T16:58:26.066Z,99349.38
2023-04-01T17:01:07.188Z,99354.44
2023-04-01T17:03:47.099Z,99357.09
2023-04-01T17:06:51.967Z,99366.88
2023-04-01T17:09:32.003Z,99381.97
2023-04-01T17:12:23.580Z,99381.47
2023-04-01T17:15:33.012Z,99379.09
2023-04-01T17:18:05.918Z,99395.91
2023-04-01T17:21:11.454Z,99393.97
2023-04-01T17:23:59.615Z,99405.66
2023-04-01T17:26:32.940Z,99410.41
2023-04-01T17:29:27.974Z,99405.59
2023-04-01T17:32:29.672Z,99409.94
2023-04-01T17:35:41.173Z,99411.25
2023-04-01T17:38:23.885Z,99413.94
2023-04-01T17:41:09.189Z,99420.94
2023-04-01T17:44:05.502Z,99430.47
2023-04-01T17:47:13.829Z,99421.44
2023-04-01T17:50:08.445Z,99430.09
2023-04-01T17:52:44.468Z,99453.22
2023-04-01T17:55:36.166Z,99448.22
2023-04-01T17:58:31.433Z,99445.94
2023-04-01T18:01:11.010Z,99454.16
2023-04-01T18:03:59.574Z,99455.28
2023-04-01T18:06:48.137Z,99454.03
2023-04-01T18:09:39.848Z,99447.88
2023-04-01T18:12:13.123Z,99464.06
2023-04-01T18:15:03.522Z,99454.63
2023-04-01T18:17:42.396Z,99476.41
2023-04-01T18:20:39.922Z,99464.16
2023-04-01T18:23:07.392Z,99459.19
2023-04-01T18:25:41.431Z,99470.66
2023-04-01T18:28:33.970Z,99476.28
2023-04-01T18:31:03.968Z,99476.59
2023-04-01T18:33:44.035Z,99491.75
2023-04-01T18:36:38.645Z,99487.28
2023-04-01T18:39:13.582Z,99494.63
2023-04-01T18:42:18.305Z,99501.78
2023-04-01T18:44:59.056Z,99498.50
2023-04-01T18:47:43.764Z,99496.94
2023-04-01T18:50:20.713Z,99509.41
2023-04-01T18:52:51.534Z,99517.53
2023-04-01T18:55:34.873Z,99509.03
2023-04-01T18:58:20.828Z,99516.91
2023-04-01T19:01:15.544Z,99511.13
2023-04-01T19:04:05.248Z,99510.72
2023-04-01T19:06:53.297Z,99514.56
2023-04-01T19:09:43.613Z,99511.19
2023-04-01T19:12:16.524Z,99528.75
2023-04-01T19:15:02.424Z,99541.34
2023-04-01T19:17:45.289Z,99529.59
2023-04-01T19:20:39.042Z,99520.16
2023-04-01T19:23:37.202Z,99544.94
2023-04-01T19:26:18.621Z,99545.31
2023-04-01T19:28:58.867Z,99546.41
2023-04-01T19:31:49.075Z,99551.50
2023-04-01T19:34:50.988Z,99540.22
2023-04-01T19:37:33.822Z,99555.09
2023-04-01T19:40:01.342Z,99537.56
2023-04-01T19:42:43.291Z,99559.19
2023-04-01T19:45:13.556Z,99570.22
2023-04-01T19:47:58.764Z,99561.84
2023-04-01T19:50:50.873Z,99570.56
2023-04-01T19:53:41.372Z,99578.25
2023-04-01T19:56:19.241Z,99578.25
2023-04-01T19:58:46.446Z,99583.13
2023-04-01T20:01:44.875Z,99594.81
2023-04-01T20:04:24.831Z,99578.53
2023-04-01T20:07:08.629Z,99599.50
2023-04-01T20:10:07.273Z,99597.66
2023-04-01T20:13:16.566Z,99605.59
2023-04-01T20:15:58.952Z,99593.59
2023-04-01T20:18:53.774Z,99601.22
2023-04-01T20:21:36.185Z,99607.97
2023-04-01T20:24:18.276Z,99613.91
2023-04-01T20:26:51.538Z,99592.09
2023-04-01T20:29:28.182Z,99609.03
2023-04-01T20:31:55.621Z,99624.63
2023-04-01T20:34:49.634Z,99628.00
2023-04-01T20:37:41.577Z,99632.44
2023-04-01T20:40:23.249Z,99634.63
2023-04-01T20:42:58.573Z,99631.28
2023-04-01T20:45:39.137Z,99627.53
2023-04-01T20:48:31.178Z,99653.75
2023-04-01T20:51:07.952Z,99653.03
2023-04-01T20:53:49.774Z,99649.75
2023-04-01T20:56:17.268Z,99646.09
2023-04-01T20:59:15.767Z,99651.72
2023-04-01T21:01:51.898Z,99667.16
2023-04-01T21:04:32.168Z,99669.13
2023-04-01T21:07:12.252Z,99660.97
2023-04-01T21:09:53.075Z,99659.59
2023-04-01T21:12:52.501Z,99678.81
2023-04-01T21:15:27.943Z,99671.47
2023-04-01T21:18:17.028Z,99671.16
2023-04-01T21:21:20.268Z,99688.75
2023-04-01T21:23:50.410Z,99671.91
2023-04-01T21:26:27.711Z,99673.53
2023-04-01T21:28:58.339Z,99670.41
2023-04-01T21:31:47.443Z,99683.22
2023-04-01T21:34:47.351Z,99690.44
2023-04-01T21:37:42.122Z,99687.00
2023-04-01T21:40:49.139Z,99697.41
2023-04-01T21:43:47.344Z,99683.38
2023-04-01T21:46:42.693Z,99703.38
2023-04-01T21:49:43.649Z,99705.22
2023-04-01T21:52:39.419Z,99706.81
2023-04-01T21:55:12.724Z,99702.59
2023-04-01T21:58:15.025Z,99710.28
2023-04-01T22:01:13.787Z,99698.00
2023-04-01T22:04:27.812Z,99704.75
2023-04-01T22:07:02.953Z,99716.97
2023-04-01T22:09:47.144Z,99722.00
2023-04-01T22:12:30.457Z,99710.03
2023-04-01T22:15:14.798Z,99720.75
2023-04-01T22:17:58.998Z,99712.25
2023-04-01T22:20:26.576Z,99710.44
2023-04-01T22:23:13.829Z,99747.84
2023-04-01T22:26:00.622Z,99720.66
2023-04-01T22:28:42.748Z,99734.50
2023-04-01T22:31:15.609Z,99721.81
2023-04-01T22:34:07.805Z,99750.06
2023-04-01T22:36:44.514Z,99741.13
2023-04-01T22:39:20.986Z,99745.72
2023-04-01T22:41:51.240Z,99757.75
2023-04-01T22:44:42.092Z,99765.03
2023-04-01T22:47:21.537Z,99770.53
2023-04-01T22:50:21.658Z,99762.78
2023-04-01T22:52:56.708Z,99758.69
2023-04-01T22:55:31.588Z,99765.91
2023-04-01T22:58:09.679Z,99763.19
2023-04-01T23:00:38.913Z,99772.84
2023-04-01T23:03:15.802Z,99766.91
2023-04-01T23:05:52.732Z,99760.13
2023-04-01T23:08:29.558Z,99772.41
2023-04-01T23:11:07.030Z,99770.13
2023-04-01T23:13:49.452Z,99770.09
2023-04-01T23:16:17.515Z,99770.06
2023-04-01T23:18:58.446Z,99764.84
2023-04-01T23:21:37.185Z,99770.41
2023-04-01T23:24:31.937Z,99774.91
2023-04-01T23:27:38.249Z,99781.22
2023-04-01T23:30:41.330Z,99796.44
2023-04-01T23:33:18.882Z,99784.69
2023-04-01T23:35:49.557Z,99787.63
2023-04-01T23:38:17.756Z,99788.25
2023-04-01T23:40:46.365Z,99782.72
2023-04-01T23:43:35.089Z,99788.03
2023-04-01T23:46:05.100Z,99791.81
2023-04-01T23:48:36.698Z,99796.34
2023-04-01T23:51:04.934Z,99795.28
2023-04-01T23:53:35.225Z,99790.97
2023-04-01T23:56:04.326Z,99804.56
2023-04-01T23:58:56.553Z,99788.59
